sensor_id;sensor_type;location;lat;lon;timestamp;P1;durP1;ratioP1;P2;durP2;ratioP2
20671;SDS011;10495;50.922;4.760;2022-09-28T00:02:05;5.03;;;3.93;;
20671;SDS011;10495;50.922;4.760;2022-09-28T00:04:31;9.10;;;4.43;;
20671;SDS011;10495;50.922;4.760;2022-09-28T00:06:59;7.53;;;4.27;;
20671;SDS011;10495;50.922;4.760;2022-09-28T00:09:25;8.10;;;4.10;;
20671;SDS011;10495;50.922;4.760;2022-09-28T00:11:51;5.73;;;4.13;;
20671;SDS011;10495;50.922;4.760;2022-09-28T00:14:20;6.97;;;4.53;;
20671;SDS011;10495;50.922;4.760;2022-09-28T00:16:46;11.13;;;5.37;;
20671;SDS011;10495;50.922;4.760;2022-09-28T00:19:12;6.17;;;4.73;;
20671;SDS011;10495;50.922;4.760;2022-09-28T00:21:38;8.70;;;4.40;;
20671;SDS011;10495;50.922;4.760;2022-09-28T00:24:06;6.47;;;4.70;;
20671;SDS011;10495;50.922;4.760;2022-09-28T00:26:37;6.97;;;4.27;;
20671;SDS011;10495;50.922;4.760;2022-09-28T00:29:05;4.97;;;3.43;;
20671;SDS011;10495;50.922;4.760;2022-09-28T00:31:32;7.80;;;4.23;;
20671;SDS011;10495;50.922;4.760;2022-09-28T00:34:01;7.00;;;4.80;;
20671;SDS011;10495;50.922;4.760;2022-09-28T00:36:29;5.50;;;4.57;;
20671;SDS011;10495;50.922;4.760;2022-09-28T00:38:56;7.20;;;5.23;;
20671;SDS011;10495;50.922;4.760;2022-09-28T00:41:23;6.77;;;5.13;;
20671;SDS011;10495;50.922;4.760;2022-09-28T00:43:51;6.13;;;4.73;;
20671;SDS011;10495;50.922;4.760;2022-09-28T00:46:23;6.40;;;4.70;;
20671;SDS011;10495;50.922;4.760;2022-09-28T00:49:00;6.03;;;4.40;;
20671;SDS011;10495;50.922;4.760;2022-09-28T00:51:31;6.87;;;4.17;;
20671;SDS011;10495;50.922;4.760;2022-09-28T00:54:00;5.77;;;4.37;;
20671;SDS011;10495;50.922;4.760;2022-09-28T00:56:29;9.60;;;3.77;;
20671;SDS011;10495;50.922;4.760;2022-09-28T00:58:56;5.50;;;3.43;;
20671;SDS011;10495;50.922;4.760;2022-09-28T01:01:23;3.83;;;3.43;;
20671;SDS011;10495;50.922;4.760;2022-09-28T01:03:51;4.13;;;3.23;;
20671;SDS011;10495;50.922;4.760;2022-09-28T01:06:21;4.87;;;3.73;;
20671;SDS011;10495;50.922;4.760;2022-09-28T01:08:51;3.70;;;2.70;;
20671;SDS011;10495;50.922;4.760;2022-09-28T01:11:19;6.27;;;2.80;;
20671;SDS011;10495;50.922;4.760;2022-09-28T01:13:45;3.43;;;2.83;;
20671;SDS011;10495;50.922;4.760;2022-09-28T01:16:18;5.57;;;2.93;;
20671;SDS011;10495;50.922;4.760;2022-09-28T01:19:26;3.40;;;3.03;;
20671;SDS011;10495;50.922;4.760;2022-09-28T01:22:22;3.50;;;2.90;;
20671;SDS011;10495;50.922;4.760;2022-09-28T01:25:14;3.13;;;2.83;;
20671;SDS011;10495;50.922;4.760;2022-09-28T01:28:04;4.87;;;3.17;;
20671;SDS011;10495;50.922;4.760;2022-09-28T01:31:25;4.63;;;2.97;;
20671;SDS011;10495;50.922;4.760;2022-09-28T01:33:36;4.10;;;3.70;;
20671;SDS011;10495;50.922;4.760;2022-09-28T01:36:11;4.00;;;3.60;;
20671;SDS011;10495;50.922;4.760;2022-09-28T01:38:43;5.80;;;4.10;;
20671;SDS011;10495;50.922;4.760;2022-09-28T01:41:13;4.97;;;4.47;;
20671;SDS011;10495;50.922;4.760;2022-09-28T01:43:41;4.87;;;4.37;;
20671;SDS011;10495;50.922;4.760;2022-09-28T01:46:14;5.90;;;4.97;;
20671;SDS011;10495;50.922;4.760;2022-09-28T01:48:45;7.87;;;4.87;;
20671;SDS011;10495;50.922;4.760;2022-09-28T01:54:11;7.30;;;4.70;;
20671;SDS011;10495;50.922;4.760;2022-09-28T01:56:45;6.97;;;4.30;;
20671;SDS011;10495;50.922;4.760;2022-09-28T01:59:23;4.63;;;3.90;;
20671;SDS011;10495;50.922;4.760;2022-09-28T02:02:06;6.37;;;5.43;;
20671;SDS011;10495;50.922;4.760;2022-09-28T02:04:56;6.23;;;5.20;;
20671;SDS011;10495;50.922;4.760;2022-09-28T02:07:55;5.77;;;4.70;;
20671;SDS011;10495;50.922;4.760;2022-09-28T02:10:19;9.13;;;5.03;;
20671;SDS011;10495;50.922;4.760;2022-09-28T02:12:50;7.10;;;5.10;;
20671;SDS011;10495;50.922;4.760;2022-09-28T02:15:29;6.13;;;5.53;;
20671;SDS011;10495;50.922;4.760;2022-09-28T02:18:01;9.23;;;6.17;;
20671;SDS011;10495;50.922;4.760;2022-09-28T02:20:27;8.67;;;5.90;;
20671;SDS011;10495;50.922;4.760;2022-09-28T02:22:54;7.07;;;5.27;;
20671;SDS011;10495;50.922;4.760;2022-09-28T02:25:23;7.67;;;5.37;;
20671;SDS011;10495;50.922;4.760;2022-09-28T02:28:02;7.20;;;5.63;;
20671;SDS011;10495;50.922;4.760;2022-09-28T02:30:30;7.67;;;5.50;;
20671;SDS011;10495;50.922;4.760;2022-09-28T02:35:44;7.33;;;4.80;;
20671;SDS011;10495;50.922;4.760;2022-09-28T02:38:10;7.60;;;5.23;;
20671;SDS011;10495;50.922;4.760;2022-09-28T02:40:37;8.37;;;5.10;;
20671;SDS011;10495;50.922;4.760;2022-09-28T02:44:06;7.57;;;5.20;;
20671;SDS011;10495;50.922;4.760;2022-09-28T02:46:42;6.27;;;4.50;;
20671;SDS011;10495;50.922;4.760;2022-09-28T02:57:17;5.20;;;3.87;;
20671;SDS011;10495;50.922;4.760;2022-09-28T03:00:23;7.70;;;4.77;;
20671;SDS011;10495;50.922;4.760;2022-09-28T03:08:30;6.40;;;4.30;;
20671;SDS011;10495;50.922;4.760;2022-09-28T03:11:03;5.57;;;4.13;;
20671;SDS011;10495;50.922;4.760;2022-09-28T03:13:34;5.57;;;4.30;;
20671;SDS011;10495;50.922;4.760;2022-09-28T03:16:08;5.93;;;5.00;;
20671;SDS011;10495;50.922;4.760;2022-09-28T03:18:41;9.50;;;5.07;;
20671;SDS011;10495;50.922;4.760;2022-09-28T03:21:08;6.90;;;4.47;;
20671;SDS011;10495;50.922;4.760;2022-09-28T03:23:36;7.37;;;4.90;;
20671;SDS011;10495;50.922;4.760;2022-09-28T03:26:02;7.27;;;5.27;;
20671;SDS011;10495;50.922;4.760;2022-09-28T03:28:27;6.13;;;4.30;;
20671;SDS011;10495;50.922;4.760;2022-09-28T03:30:53;6.77;;;4.80;;
20671;SDS011;10495;50.922;4.760;2022-09-28T03:33:20;10.47;;;5.13;;
20671;SDS011;10495;50.922;4.760;2022-09-28T03:35:47;8.60;;;4.93;;
20671;SDS011;10495;50.922;4.760;2022-09-28T03:38:14;6.00;;;4.23;;
20671;SDS011;10495;50.922;4.760;2022-09-28T03:40:40;5.07;;;3.93;;
20671;SDS011;10495;50.922;4.760;2022-09-28T03:43:06;6.10;;;3.80;;
20671;SDS011;10495;50.922;4.760;2022-09-28T03:45:32;5.03;;;3.80;;
20671;SDS011;10495;50.922;4.760;2022-09-28T03:47:57;5.73;;;3.93;;
20671;SDS011;10495;50.922;4.760;2022-09-28T03:50:24;5.33;;;3.43;;
20671;SDS011;10495;50.922;4.760;2022-09-28T03:52:49;3.93;;;3.50;;
20671;SDS011;10495;50.922;4.760;2022-09-28T03:55:15;5.23;;;4.27;;
20671;SDS011;10495;50.922;4.760;2022-09-28T03:57:41;5.67;;;4.60;;
20671;SDS011;10495;50.922;4.760;2022-09-28T04:00:07;6.10;;;3.67;;
20671;SDS011;10495;50.922;4.760;2022-09-28T04:02:33;4.33;;;3.63;;
20671;SDS011;10495;50.922;4.760;2022-09-28T04:04:59;4.43;;;3.77;;
20671;SDS011;10495;50.922;4.760;2022-09-28T04:07:24;4.60;;;3.20;;
20671;SDS011;10495;50.922;4.760;2022-09-28T04:09:50;5.17;;;3.27;;
20671;SDS011;10495;50.922;4.760;2022-09-28T04:12:16;4.83;;;3.27;;
20671;SDS011;10495;50.922;4.760;2022-09-28T04:14:41;4.30;;;3.60;;
20671;SDS011;10495;50.922;4.760;2022-09-28T04:17:07;5.70;;;3.03;;
20671;SDS011;10495;50.922;4.760;2022-09-28T04:19:32;3.13;;;2.83;;
20671;SDS011;10495;50.922;4.760;2022-09-28T04:21:58;5.33;;;2.97;;
20671;SDS011;10495;50.922;4.760;2022-09-28T04:24:25;3.53;;;2.67;;
20671;SDS011;10495;50.922;4.760;2022-09-28T04:26:51;3.83;;;3.10;;
20671;SDS011;10495;50.922;4.760;2022-09-28T04:29:36;4.57;;;3.07;;
20671;SDS011;10495;50.922;4.760;2022-09-28T04:32:02;5.00;;;3.20;;
20671;SDS011;10495;50.922;4.760;2022-09-28T04:34:29;3.20;;;2.23;;
20671;SDS011;10495;50.922;4.760;2022-09-28T04:36:55;2.67;;;2.10;;
20671;SDS011;10495;50.922;4.760;2022-09-28T04:39:21;4.70;;;2.40;;
20671;SDS011;10495;50.922;4.760;2022-09-28T04:41:47;4.43;;;2.33;;
20671;SDS011;10495;50.922;4.760;2022-09-28T04:44:13;4.73;;;1.70;;
20671;SDS011;10495;50.922;4.760;2022-09-28T04:46:38;5.77;;;2.07;;
20671;SDS011;10495;50.922;4.760;2022-09-28T04:49:04;2.10;;;1.80;;
20671;SDS011;10495;50.922;4.760;2022-09-28T04:51:30;2.57;;;2.20;;
20671;SDS011;10495;50.922;4.760;2022-09-28T04:53:56;2.43;;;1.70;;
20671;SDS011;10495;50.922;4.760;2022-09-28T04:56:22;4.07;;;1.60;;
20671;SDS011;10495;50.922;4.760;2022-09-28T04:58:48;2.17;;;1.60;;
20671;SDS011;10495;50.922;4.760;2022-09-28T05:01:15;1.73;;;1.40;;
20671;SDS011;10495;50.922;4.760;2022-09-28T05:03:42;1.40;;;1.23;;
20671;SDS011;10495;50.922;4.760;2022-09-28T05:06:08;1.50;;;1.40;;
20671;SDS011;10495;50.922;4.760;2022-09-28T05:08:37;2.93;;;1.40;;
20671;SDS011;10495;50.922;4.760;2022-09-28T05:11:03;2.07;;;1.37;;
20671;SDS011;10495;50.922;4.760;2022-09-28T05:13:32;1.70;;;1.47;;
20671;SDS011;10495;50.922;4.760;2022-09-28T05:16:05;1.93;;;1.40;;
20671;SDS011;10495;50.922;4.760;2022-09-28T05:18:31;2.37;;;2.00;;
20671;SDS011;10495;50.922;4.760;2022-09-28T05:20:57;2.03;;;1.60;;
20671;SDS011;10495;50.922;4.760;2022-09-28T05:23:23;2.07;;;1.60;;
20671;SDS011;10495;50.922;4.760;2022-09-28T05:25:48;3.00;;;1.87;;
20671;SDS011;10495;50.922;4.760;2022-09-28T05:28:17;1.90;;;1.70;;
20671;SDS011;10495;50.922;4.760;2022-09-28T05:30:48;3.03;;;2.30;;
20671;SDS011;10495;50.922;4.760;2022-09-28T05:33:14;3.27;;;2.20;;
20671;SDS011;10495;50.922;4.760;2022-09-28T05:35:39;4.17;;;2.10;;
20671;SDS011;10495;50.922;4.760;2022-09-28T05:38:05;2.23;;;2.03;;
20671;SDS011;10495;50.922;4.760;2022-09-28T05:40:30;2.00;;;1.80;;
20671;SDS011;10495;50.922;4.760;2022-09-28T05:42:59;3.27;;;2.23;;
20671;SDS011;10495;50.922;4.760;2022-09-28T05:45:26;2.70;;;1.90;;
20671;SDS011;10495;50.922;4.760;2022-09-28T05:47:55;2.87;;;2.00;;
20671;SDS011;10495;50.922;4.760;2022-09-28T05:50:20;2.33;;;2.00;;
20671;SDS011;10495;50.922;4.760;2022-09-28T05:52:55;2.50;;;2.07;;
20671;SDS011;10495;50.922;4.760;2022-09-28T05:55:32;3.27;;;2.10;;
20671;SDS011;10495;50.922;4.760;2022-09-28T05:58:02;2.60;;;1.87;;
20671;SDS011;10495;50.922;4.760;2022-09-28T06:00:30;4.70;;;2.77;;
20671;SDS011;10495;50.922;4.760;2022-09-28T06:02:58;4.53;;;2.57;;
20671;SDS011;10495;50.922;4.760;2022-09-28T06:05:28;3.60;;;2.67;;
20671;SDS011;10495;50.922;4.760;2022-09-28T06:07:55;3.33;;;2.40;;
20671;SDS011;10495;50.922;4.760;2022-09-28T06:10:21;7.07;;;3.03;;
20671;SDS011;10495;50.922;4.760;2022-09-28T06:12:50;2.80;;;2.60;;
20671;SDS011;10495;50.922;4.760;2022-09-28T06:15:20;3.30;;;2.60;;
20671;SDS011;10495;50.922;4.760;2022-09-28T06:17:46;5.40;;;2.60;;
20671;SDS011;10495;50.922;4.760;2022-09-28T06:20:12;3.90;;;2.50;;
20671;SDS011;10495;50.922;4.760;2022-09-28T06:22:38;4.00;;;2.77;;
20671;SDS011;10495;50.922;4.760;2022-09-28T06:25:04;6.77;;;2.83;;
20671;SDS011;10495;50.922;4.760;2022-09-28T06:27:31;8.63;;;3.53;;
20671;SDS011;10495;50.922;4.760;2022-09-28T06:29:57;3.80;;;2.60;;
20671;SDS011;10495;50.922;4.760;2022-09-28T06:32:24;6.80;;;2.63;;
20671;SDS011;10495;50.922;4.760;2022-09-28T06:34:53;3.97;;;2.90;;
20671;SDS011;10495;50.922;4.760;2022-09-28T06:37:18;5.70;;;2.73;;
20671;SDS011;10495;50.922;4.760;2022-09-28T06:39:44;6.17;;;3.13;;
20671;SDS011;10495;50.922;4.760;2022-09-28T06:42:10;5.23;;;4.23;;
20671;SDS011;10495;50.922;4.760;2022-09-28T06:44:35;4.10;;;2.97;;
20671;SDS011;10495;50.922;4.760;2022-09-28T06:47:01;6.07;;;4.63;;
20671;SDS011;10495;50.922;4.760;2022-09-28T06:49:27;5.47;;;4.30;;
20671;SDS011;10495;50.922;4.760;2022-09-28T06:51:54;5.90;;;4.10;;
20671;SDS011;10495;50.922;4.760;2022-09-28T06:54:20;6.90;;;4.70;;
20671;SDS011;10495;50.922;4.760;2022-09-28T06:56:49;8.53;;;4.73;;
20671;SDS011;10495;50.922;4.760;2022-09-28T06:59:16;7.47;;;5.73;;
20671;SDS011;10495;50.922;4.760;2022-09-28T07:01:42;8.17;;;4.57;;
20671;SDS011;10495;50.922;4.760;2022-09-28T07:04:07;6.83;;;4.60;;
20671;SDS011;10495;50.922;4.760;2022-09-28T07:06:33;6.27;;;4.30;;
20671;SDS011;10495;50.922;4.760;2022-09-28T07:08:58;6.70;;;3.80;;
20671;SDS011;10495;50.922;4.760;2022-09-28T07:11:26;5.67;;;3.67;;
20671;SDS011;10495;50.922;4.760;2022-09-28T07:13:53;4.90;;;4.40;;
20671;SDS011;10495;50.922;4.760;2022-09-28T07:16:19;5.73;;;4.03;;
20671;SDS011;10495;50.922;4.760;2022-09-28T07:18:44;7.17;;;4.10;;
20671;SDS011;10495;50.922;4.760;2022-09-28T07:21:10;5.80;;;4.07;;
20671;SDS011;10495;50.922;4.760;2022-09-28T07:23:36;7.17;;;4.50;;
20671;SDS011;10495;50.922;4.760;2022-09-28T07:26:03;7.17;;;4.30;;
20671;SDS011;10495;50.922;4.760;2022-09-28T07:28:29;6.60;;;3.97;;
20671;SDS011;10495;50.922;4.760;2022-09-28T07:30:55;4.83;;;4.33;;
20671;SDS011;10495;50.922;4.760;2022-09-28T07:33:21;7.13;;;4.10;;
20671;SDS011;10495;50.922;4.760;2022-09-28T07:35:52;7.43;;;4.43;;
20671;SDS011;10495;50.922;4.760;2022-09-28T07:38:19;5.30;;;4.00;;
20671;SDS011;10495;50.922;4.760;2022-09-28T07:40:45;6.50;;;3.90;;
20671;SDS011;10495;50.922;4.760;2022-09-28T07:43:29;4.50;;;3.60;;
20671;SDS011;10495;50.922;4.760;2022-09-28T07:45:56;5.03;;;3.70;;
20671;SDS011;10495;50.922;4.760;2022-09-28T07:48:22;6.00;;;3.90;;
20671;SDS011;10495;50.922;4.760;2022-09-28T07:53:16;4.63;;;3.40;;
20671;SDS011;10495;50.922;4.760;2022-09-28T07:55:55;6.10;;;3.70;;
20671;SDS011;10495;50.922;4.760;2022-09-28T07:58:31;5.23;;;3.37;;
20671;SDS011;10495;50.922;4.760;2022-09-28T08:00:58;8.30;;;3.83;;
20671;SDS011;10495;50.922;4.760;2022-09-28T08:03:26;7.67;;;3.87;;
20671;SDS011;10495;50.922;4.760;2022-09-28T08:05:59;5.33;;;3.50;;
20671;SDS011;10495;50.922;4.760;2022-09-28T08:08:25;6.07;;;3.87;;
20671;SDS011;10495;50.922;4.760;2022-09-28T08:10:52;5.20;;;3.33;;
20671;SDS011;10495;50.922;4.760;2022-09-28T08:13:18;5.83;;;3.63;;
20671;SDS011;10495;50.922;4.760;2022-09-28T08:15:44;8.10;;;4.07;;
20671;SDS011;10495;50.922;4.760;2022-09-28T08:18:15;5.70;;;3.30;;
20671;SDS011;10495;50.922;4.760;2022-09-28T08:20:40;4.83;;;3.20;;
20671;SDS011;10495;50.922;4.760;2022-09-28T08:23:24;7.47;;;2.90;;
20671;SDS011;10495;50.922;4.760;2022-09-28T08:25:50;6.20;;;3.67;;
20671;SDS011;10495;50.922;4.760;2022-09-28T08:28:19;3.60;;;3.03;;
20671;SDS011;10495;50.922;4.760;2022-09-28T08:30:47;3.80;;;2.83;;
20671;SDS011;10495;50.922;4.760;2022-09-28T08:33:14;3.37;;;2.70;;
20671;SDS011;10495;50.922;4.760;2022-09-28T08:35:42;4.73;;;2.63;;
20671;SDS011;10495;50.922;4.760;2022-09-28T08:38:08;6.60;;;2.60;;
20671;SDS011;10495;50.922;4.760;2022-09-28T08:40:58;5.60;;;2.93;;
20671;SDS011;10495;50.922;4.760;2022-09-28T08:43:39;4.27;;;2.50;;
20671;SDS011;10495;50.922;4.760;2022-09-28T08:46:18;6.73;;;2.07;;
20671;SDS011;10495;50.922;4.760;2022-09-28T08:48:52;4.67;;;2.30;;
20671;SDS011;10495;50.922;4.760;2022-09-28T08:51:34;3.03;;;2.00;;
20671;SDS011;10495;50.922;4.760;2022-09-28T08:57:27;7.03;;;2.57;;
20671;SDS011;10495;50.922;4.760;2022-09-28T09:00:00;4.43;;;2.50;;
20671;SDS011;10495;50.922;4.760;2022-09-28T09:02:34;5.80;;;2.90;;
20671;SDS011;10495;50.922;4.760;2022-09-28T09:05:04;6.50;;;2.30;;
20671;SDS011;10495;50.922;4.760;2022-09-28T09:16:23;7.80;;;2.63;;
20671;SDS011;10495;50.922;4.760;2022-09-28T09:21:47;4.43;;;2.90;;
20671;SDS011;10495;50.922;4.760;2022-09-28T09:24:01;6.90;;;2.60;;
20671;SDS011;10495;50.922;4.760;2022-09-28T09:26:36;6.50;;;2.70;;
20671;SDS011;10495;50.922;4.760;2022-09-28T09:34:51;7.00;;;2.33;;
20671;SDS011;10495;50.922;4.760;2022-09-28T09:37:49;7.47;;;2.87;;
20671;SDS011;10495;50.922;4.760;2022-09-28T09:45:57;7.73;;;2.30;;
20671;SDS011;10495;50.922;4.760;2022-09-28T09:49:10;4.93;;;2.13;;
20671;SDS011;10495;50.922;4.760;2022-09-28T09:51:34;3.83;;;2.60;;
20671;SDS011;10495;50.922;4.760;2022-09-28T09:54:22;4.40;;;2.43;;
20671;SDS011;10495;50.922;4.760;2022-09-28T09:57:01;6.63;;;2.80;;
20671;SDS011;10495;50.922;4.760;2022-09-28T09:59:33;5.13;;;2.33;;
20671;SDS011;10495;50.922;4.760;2022-09-28T10:02:06;3.83;;;2.60;;
20671;SDS011;10495;50.922;4.760;2022-09-28T10:04:45;6.53;;;2.60;;
20671;SDS011;10495;50.922;4.760;2022-09-28T10:07:15;7.73;;;3.53;;
20671;SDS011;10495;50.922;4.760;2022-09-28T10:09:47;3.13;;;2.03;;
20671;SDS011;10495;50.922;4.760;2022-09-28T10:12:17;3.00;;;2.13;;
20671;SDS011;10495;50.922;4.760;2022-09-28T10:14:44;4.60;;;2.20;;
20671;SDS011;10495;50.922;4.760;2022-09-28T10:17:11;5.07;;;2.10;;
20671;SDS011;10495;50.922;4.760;2022-09-28T10:19:40;4.67;;;2.30;;
20671;SDS011;10495;50.922;4.760;2022-09-28T10:22:08;3.63;;;1.90;;
20671;SDS011;10495;50.922;4.760;2022-09-28T10:24:41;6.23;;;1.93;;
20671;SDS011;10495;50.922;4.760;2022-09-28T10:27:13;3.23;;;2.03;;
20671;SDS011;10495;50.922;4.760;2022-09-28T10:29:44;6.83;;;1.90;;
20671;SDS011;10495;50.922;4.760;2022-09-28T10:32:23;3.13;;;1.63;;
20671;SDS011;10495;50.922;4.760;2022-09-28T10:34:51;3.27;;;1.80;;
20671;SDS011;10495;50.922;4.760;2022-09-28T10:37:30;5.00;;;2.37;;
20671;SDS011;10495;50.922;4.760;2022-09-28T10:39:55;4.67;;;2.40;;
20671;SDS011;10495;50.922;4.760;2022-09-28T10:42:22;4.13;;;2.20;;
20671;SDS011;10495;50.922;4.760;2022-09-28T10:47:19;4.13;;;1.90;;
20671;SDS011;10495;50.922;4.760;2022-09-28T10:49:48;6.27;;;2.33;;
20671;SDS011;10495;50.922;4.760;2022-09-28T10:54:56;2.33;;;1.70;;
20671;SDS011;10495;50.922;4.760;2022-09-28T10:57:31;4.70;;;1.70;;
20671;SDS011;10495;50.922;4.760;2022-09-28T10:59:59;2.10;;;1.30;;
20671;SDS011;10495;50.922;4.760;2022-09-28T11:02:26;2.57;;;1.23;;
20671;SDS011;10495;50.922;4.760;2022-09-28T11:04:58;3.63;;;1.20;;
20671;SDS011;10495;50.922;4.760;2022-09-28T11:07:27;2.23;;;1.60;;
20671;SDS011;10495;50.922;4.760;2022-09-28T11:09:56;3.53;;;1.30;;
20671;SDS011;10495;50.922;4.760;2022-09-28T11:12:26;3.50;;;1.20;;
20671;SDS011;10495;50.922;4.760;2022-09-28T11:15:01;3.50;;;1.20;;
20671;SDS011;10495;50.922;4.760;2022-09-28T11:17:35;1.80;;;1.07;;
20671;SDS011;10495;50.922;4.760;2022-09-28T11:20:20;4.67;;;1.40;;
20671;SDS011;10495;50.922;4.760;2022-09-28T11:22:56;4.23;;;1.30;;
20671;SDS011;10495;50.922;4.760;2022-09-28T11:25:25;3.40;;;1.07;;
20671;SDS011;10495;50.922;4.760;2022-09-28T11:33:47;2.30;;;1.00;;
20671;SDS011;10495;50.922;4.760;2022-09-28T11:35:55;4.60;;;1.00;;
20671;SDS011;10495;50.922;4.760;2022-09-28T11:38:35;3.27;;;0.97;;
20671;SDS011;10495;50.922;4.760;2022-09-28T11:43:46;4.63;;;1.20;;
20671;SDS011;10495;50.922;4.760;2022-09-28T11:51:51;3.40;;;1.10;;
20671;SDS011;10495;50.922;4.760;2022-09-28T11:57:07;1.50;;;0.70;;
20671;SDS011;10495;50.922;4.760;2022-09-28T11:59:48;2.03;;;0.93;;
20671;SDS011;10495;50.922;4.760;2022-09-28T12:07:42;2.10;;;1.27;;
20671;SDS011;10495;50.922;4.760;2022-09-28T12:13:11;6.63;;;1.43;;
20671;SDS011;10495;50.922;4.760;2022-09-28T12:15:44;2.60;;;1.27;;
20671;SDS011;10495;50.922;4.760;2022-09-28T12:18:19;3.27;;;1.90;;
20671;SDS011;10495;50.922;4.760;2022-09-28T12:20:50;5.27;;;1.30;;
20671;SDS011;10495;50.922;4.760;2022-09-28T12:23:33;4.30;;;1.73;;
20671;SDS011;10495;50.922;4.760;2022-09-28T12:26:03;1.00;;;0.90;;
20671;SDS011;10495;50.922;4.760;2022-09-28T12:31:20;3.73;;;1.40;;
20671;SDS011;10495;50.922;4.760;2022-09-28T12:33:52;2.87;;;1.60;;
20671;SDS011;10495;50.922;4.760;2022-09-28T12:36:23;2.07;;;1.40;;
20671;SDS011;10495;50.922;4.760;2022-09-28T12:39:43;2.87;;;1.73;;
20671;SDS011;10495;50.922;4.760;2022-09-28T12:52:49;4.77;;;1.80;;
20671;SDS011;10495;50.922;4.760;2022-09-28T13:00:53;2.97;;;1.73;;
20671;SDS011;10495;50.922;4.760;2022-09-28T13:11:49;1.87;;;1.10;;
20671;SDS011;10495;50.922;4.760;2022-09-28T13:22:22;1.33;;;1.00;;
20671;SDS011;10495;50.922;4.760;2022-09-28T13:25:03;3.70;;;1.30;;
20671;SDS011;10495;50.922;4.760;2022-09-28T13:27:37;2.13;;;1.10;;
20671;SDS011;10495;50.922;4.760;2022-09-28T13:30:06;1.97;;;1.33;;
20671;SDS011;10495;50.922;4.760;2022-09-28T13:32:37;1.87;;;1.07;;
20671;SDS011;10495;50.922;4.760;2022-09-28T13:35:03;2.63;;;1.27;;
20671;SDS011;10495;50.922;4.760;2022-09-28T13:37:30;1.33;;;0.90;;
20671;SDS011;10495;50.922;4.760;2022-09-28T13:39:58;3.10;;;1.20;;
20671;SDS011;10495;50.922;4.760;2022-09-28T13:50:19;1.80;;;1.20;;
20671;SDS011;10495;50.922;4.760;2022-09-28T13:53:24;1.10;;;1.00;;
20671;SDS011;10495;50.922;4.760;2022-09-28T13:56:03;4.07;;;1.37;;
20671;SDS011;10495;50.922;4.760;2022-09-28T13:59:42;1.10;;;1.00;;
20671;SDS011;10495;50.922;4.760;2022-09-28T14:01:41;1.13;;;1.00;;
20671;SDS011;10495;50.922;4.760;2022-09-28T14:04:23;2.13;;;1.10;;
20671;SDS011;10495;50.922;4.760;2022-09-28T14:07:14;2.40;;;1.43;;
20671;SDS011;10495;50.922;4.760;2022-09-28T14:12:43;3.57;;;1.40;;
20671;SDS011;10495;50.922;4.760;2022-09-28T14:18:04;2.20;;;1.20;;
20671;SDS011;10495;50.922;4.760;2022-09-28T14:20:34;1.97;;;1.20;;
20671;SDS011;10495;50.922;4.760;2022-09-28T14:25:42;1.80;;;1.20;;
20671;SDS011;10495;50.922;4.760;2022-09-28T14:30:54;2.10;;;1.47;;
20671;SDS011;10495;50.922;4.760;2022-09-28T14:33:29;2.87;;;1.50;;
20671;SDS011;10495;50.922;4.760;2022-09-28T14:35:58;4.20;;;1.67;;
20671;SDS011;10495;50.922;4.760;2022-09-28T14:41:32;2.23;;;1.30;;
20671;SDS011;10495;50.922;4.760;2022-09-28T14:44:05;7.83;;;2.97;;
20671;SDS011;10495;50.922;4.760;2022-09-28T14:46:36;5.43;;;2.87;;
20671;SDS011;10495;50.922;4.760;2022-09-28T14:51:56;4.80;;;2.27;;
20671;SDS011;10495;50.922;4.760;2022-09-28T14:54:48;5.93;;;2.20;;
20671;SDS011;10495;50.922;4.760;2022-09-28T14:57:17;5.20;;;1.40;;
20671;SDS011;10495;50.922;4.760;2022-09-28T15:02:18;2.20;;;1.50;;
20671;SDS011;10495;50.922;4.760;2022-09-28T15:04:51;3.43;;;1.30;;
20671;SDS011;10495;50.922;4.760;2022-09-28T15:09:51;4.50;;;2.07;;
20671;SDS011;10495;50.922;4.760;2022-09-28T15:12:28;2.43;;;1.50;;
20671;SDS011;10495;50.922;4.760;2022-09-28T15:14:56;2.90;;;1.23;;
20671;SDS011;10495;50.922;4.760;2022-09-28T15:17:26;1.33;;;1.00;;
20671;SDS011;10495;50.922;4.760;2022-09-28T15:22:35;1.67;;;1.43;;
20671;SDS011;10495;50.922;4.760;2022-09-28T15:25:02;1.90;;;1.27;;
20671;SDS011;10495;50.922;4.760;2022-09-28T15:27:37;2.60;;;1.57;;
20671;SDS011;10495;50.922;4.760;2022-09-28T15:32:56;4.23;;;1.40;;
20671;SDS011;10495;50.922;4.760;2022-09-28T15:38:14;5.37;;;2.00;;
20671;SDS011;10495;50.922;4.760;2022-09-28T15:40:43;2.13;;;1.43;;
20671;SDS011;10495;50.922;4.760;2022-09-28T15:45:44;6.10;;;3.10;;
20671;SDS011;10495;50.922;4.760;2022-09-28T15:48:39;7.03;;;2.93;;
20671;SDS011;10495;50.922;4.760;2022-09-28T15:51:16;3.10;;;2.20;;
20671;SDS011;10495;50.922;4.760;2022-09-28T15:57:27;2.50;;;1.50;;
20671;SDS011;10495;50.922;4.760;2022-09-28T15:59:56;4.03;;;1.40;;
20671;SDS011;10495;50.922;4.760;2022-09-28T16:02:23;2.17;;;1.20;;
20671;SDS011;10495;50.922;4.760;2022-09-28T16:04:57;1.70;;;1.30;;
20671;SDS011;10495;50.922;4.760;2022-09-28T16:07:39;2.10;;;1.50;;
20671;SDS011;10495;50.922;4.760;2022-09-28T16:12:44;3.50;;;1.63;;
20671;SDS011;10495;50.922;4.760;2022-09-28T16:15:29;4.23;;;1.53;;
20671;SDS011;10495;50.922;4.760;2022-09-28T16:18:02;4.03;;;1.63;;
20671;SDS011;10495;50.922;4.760;2022-09-28T16:20:34;2.50;;;1.73;;
20671;SDS011;10495;50.922;4.760;2022-09-28T16:23:16;4.30;;;1.97;;
20671;SDS011;10495;50.922;4.760;2022-09-28T16:25:46;4.57;;;2.30;;
20671;SDS011;10495;50.922;4.760;2022-09-28T16:28:23;2.43;;;2.20;;
20671;SDS011;10495;50.922;4.760;2022-09-28T16:31:00;3.00;;;1.93;;
20671;SDS011;10495;50.922;4.760;2022-09-28T16:33:29;2.13;;;1.80;;
20671;SDS011;10495;50.922;4.760;2022-09-28T16:36:18;4.70;;;2.60;;
20671;SDS011;10495;50.922;4.760;2022-09-28T16:38:46;3.27;;;2.20;;
20671;SDS011;10495;50.922;4.760;2022-09-28T16:41:18;3.73;;;2.23;;
20671;SDS011;10495;50.922;4.760;2022-09-28T16:43:46;5.70;;;2.77;;
20671;SDS011;10495;50.922;4.760;2022-09-28T16:46:13;3.70;;;2.80;;
20671;SDS011;10495;50.922;4.760;2022-09-28T16:48:45;3.13;;;2.27;;
20671;SDS011;10495;50.922;4.760;2022-09-28T16:51:13;3.40;;;2.20;;
20671;SDS011;10495;50.922;4.760;2022-09-28T16:53:39;2.70;;;2.30;;
20671;SDS011;10495;50.922;4.760;2022-09-28T16:56:23;3.87;;;3.10;;
20671;SDS011;10495;50.922;4.760;2022-09-28T16:58:51;4.57;;;3.50;;
20671;SDS011;10495;50.922;4.760;2022-09-28T17:01:18;4.77;;;2.70;;
20671;SDS011;10495;50.922;4.760;2022-09-28T17:03:45;3.97;;;3.20;;
20671;SDS011;10495;50.922;4.760;2022-09-28T17:06:12;3.50;;;3.20;;
20671;SDS011;10495;50.922;4.760;2022-09-28T17:08:39;4.30;;;3.20;;
20671;SDS011;10495;50.922;4.760;2022-09-28T17:11:07;3.87;;;3.43;;
20671;SDS011;10495;50.922;4.760;2022-09-28T17:13:37;3.73;;;3.20;;
20671;SDS011;10495;50.922;4.760;2022-09-28T17:16:04;4.23;;;3.23;;
20671;SDS011;10495;50.922;4.760;2022-09-28T17:18:34;3.70;;;2.97;;
20671;SDS011;10495;50.922;4.760;2022-09-28T17:21:03;2.90;;;2.60;;
20671;SDS011;10495;50.922;4.760;2022-09-28T17:23:37;3.60;;;2.90;;
20671;SDS011;10495;50.922;4.760;2022-09-28T17:26:02;3.13;;;2.60;;
20671;SDS011;10495;50.922;4.760;2022-09-28T17:28:30;5.17;;;3.10;;
20671;SDS011;10495;50.922;4.760;2022-09-28T17:30:58;7.83;;;3.70;;
20671;SDS011;10495;50.922;4.760;2022-09-28T17:33:23;5.73;;;3.47;;
20671;SDS011;10495;50.922;4.760;2022-09-28T17:35:58;7.50;;;2.90;;
20671;SDS011;10495;50.922;4.760;2022-09-28T17:38:25;5.13;;;3.40;;
20671;SDS011;10495;50.922;4.760;2022-09-28T17:40:51;5.60;;;3.60;;
20671;SDS011;10495;50.922;4.760;2022-09-28T17:43:16;5.50;;;3.43;;
20671;SDS011;10495;50.922;4.760;2022-09-28T17:45:43;4.60;;;3.90;;
20671;SDS011;10495;50.922;4.760;2022-09-28T17:48:14;5.63;;;4.40;;
20671;SDS011;10495;50.922;4.760;2022-09-28T17:50:43;7.07;;;4.83;;
20671;SDS011;10495;50.922;4.760;2022-09-28T17:53:11;6.50;;;5.27;;